Página principal
METAR-TAF:

METAR-TAF

Aeroportos :

Bahrein, Bahrein

Aeroporto Internacional do Bahrain

latitude: 26-16N, longitude: 050-39E, altura: 2 m

Observação actual do tempo

O boletim foi feito há 42 minutos, às 23:00 UTC
Vento 17 kt de noroeste
Temperatura 20°C
Humidade 68%
Pressão 1011 hPa
Visibilidade: 1500 m
poeira extensa

METAR: OBBI 182300Z 32017KT 1500 DU NSC 20/14 Q1011 TEMPO 0800

Hora: 02:42 (23:42 UTC)

Previsão

O boletim foi feito há 42 minutos, às 23:00 UTC
Previsão válida de 19 às 00 UTC a 20 às 06 UTC
Vento 13 kt de norte com rajadas de 23 kt
Visibilidade: 5000 m
poeira extensa
Temporariamente
de 19 às 00 UTC a 19 às 06 UTC
Visibilidade: 1000 m
Tornando-se
de 19 às 04 UTC a 19 às 06 UTC
Vento 11 kt de norte

TAF: OBBI 182300Z 1900/2006 35013G23KT 5000 DU NSC TEMPO 1900/1906 1000 BECMG 1904/1906 35011KT

Observações e previsões do tempo de mais de 4000 aeroportos (mensagens METAR e TAF).

As estações disponíveis são os pontos amarelos e vermelhos sobre o mapa.

Mova o rato sobre o mapa para ver o nome da estação.

Depois clique no ponto para visualizar as observações e previsões meteorológicas.

Para alterar o mapa : clique nos botões verdes com uma cruz preta para aumentar o zoom; no botão verde com uma pitada de zoom; ou nas setas verdes para mapas adjacentes.


METAR-TAF: